Ana Sayfa
METAR-TAF:

METAR-TAF

Havaalanları :

Franklin County Airport

Louisburg, Kuzey Carolina, Amerika Birleşik Devletleri

Enlem: 36-01-24N, Boylam: 078-19-49W, yükseklik: 113 m

Güncel hava durumu gözlemi

Rapor saat 16:20 UTC de 18 dakika önce yapıldı.
Rüzgar güneybatıdan 9 kt
Sıcaklık 27°C
Nem 74%
Basınç 1019 hPa
Görüş mesafesi: 16.1 km
2200 ft yükseklikte parçalı çok bulutlu
3100 ft yükseklikte parçalı çok bulutlu

METAR: KLHZ 211620Z AUTO 22009KT 10SM BKN022 BKN031 27/22 A3008 RMK AO2

Saat: 12:38 (16:38 UTC)


TAF: eksik

4.000'den fazla havaalanı için hava durumu gözlemleri ve tahminleri (METAR ve TAF raporları).

Kullanılabilir istasyonlar harita üzerinde sarı ve kırmızı noktalarla gösterilir.

İstasyonun adını görmek için fareyi noktanın üzerinde gezdirin.

Sonrasında hava gözlem ve tahminlerini görmek için tıklayın.

Haritayı değiştirmek için: yaklaştırmak için siyah artı işaretli yeşil düğmeye ve uzaklaştırmak için de eksi işaretli düğmeye hızla tıklayın; bitişik haritalar için yeşil okları kullanın.


METAR-TAF: